Time;durP1;ratioP1;P1;durP2;ratioP2;P2;SDS_P1;SDS_P2;PMS_P1;PMS_P2;Temp;Humidity;BMP_temperature;BMP_pressure;BME280_temperature;BME280_humidity;BME280_pressure;Samples;Min_cycle;Max_cycle;Signal;HPM_P1;HPM_P2
2023/08/10 00:57:58;;;;;;;29.53;24.60;;;12.90;99.90;;;;;;4522855;31;20215;-82
2023/08/10 01:28:12;;;;;;;28.70;22.50;;;13.00;99.90;;;;;;4628228;30;20594;-84
2023/08/10 01:49:02;;;;;;;30.50;22.50;;;12.50;99.90;;;;;;4564312;30;20302;-81
2023/08/10 02:18:52;;;;;;;32.60;26.10;;;12.20;99.90;;;;;;4565576;30;20384;-83
2023/08/10 02:39:36;;;;;;;33.73;25.60;;;11.70;99.90;;;;;;4685955;29;20253;-82
2023/08/10 03:04:38;;;;;;;32.10;25.00;;;11.40;99.90;;;;;;4474650;31;20646;-83
2023/08/10 03:30:29;;;;;;;34.23;25.57;;;11.20;99.90;;;;;;4619074;30;20283;-82
2023/08/10 04:11:01;;;;;;;38.17;28.03;;;11.70;99.90;;;;;;4826281;29;20238;-83
2023/08/10 04:36:13;;;;;;;28.57;25.27;;;12.40;99.90;;;;;;4809117;29;20206;-82
2023/08/10 04:56:46;;;;;;;23.93;21.43;;;13.60;99.90;;;;;;4547190;30;20244;-85
2023/08/10 05:31:33;;;;;;;20.73;18.63;;;14.20;99.90;;;;;;4529763;30;20747;-84
2023/08/10 05:57:02;;;;;;;18.20;16.50;;;15.00;99.90;;;;;;4604414;30;20718;-84
2023/08/10 06:22:44;;;;;;;16.43;14.80;;;15.60;99.90;;;;;;4663264;29;20744;-82
2023/08/10 06:48:16;;;;;;;14.97;13.40;;;16.40;99.90;;;;;;4668722;29;21045;-82
2023/08/10 07:18:08;;;;;;;15.73;14.03;;;17.60;99.90;;;;;;4693273;29;20467;-82
2023/08/10 07:38:23;;;;;;;9.67;8.77;;;18.70;98.90;;;;;;4661354;29;20614;-81
2023/08/10 08:09:27;;;;;;;7.37;6.00;;;19.40;89.10;;;;;;4741238;29;20338;-84
2023/08/10 08:39:42;;;;;;;4.67;4.17;;;19.80;84.30;;;;;;4663787;29;20559;-83
2023/08/10 09:10:15;;;;;;;4.68;3.38;;;21.20;75.90;;;;;;4533698;30;20219;-83
2023/08/10 09:35:08;;;;;;;4.13;2.20;;;22.30;60.60;;;;;;4665520;30;20513;-86
2023/08/10 10:00:59;;;;;;;4.13;2.38;;;22.20;60.30;;;;;;4576643;30;20655;-83
2023/08/10 10:21:10;;;;;;;3.20;2.25;;;21.70;58.70;;;;;;4514149;31;20257;-81
2023/08/10 10:51:26;;;;;;;5.18;2.15;;;21.80;56.50;;;;;;4614705;30;20599;-84
2023/08/10 11:11:53;;;;;;;5.40;1.88;;;21.10;56.80;;;;;;4693387;29;20366;-80
2023/08/10 11:37:30;;;;;;;4.43;2.00;;;21.30;55.10;;;;;;4620626;30;20747;-83
2023/08/10 12:22:59;;;;;;;3.05;2.00;;;22.50;53.00;;;;;;4542499;30;20243;-82
2023/08/10 12:27:34;;;;;;;2.25;1.83;;;22.20;51.60;;;;;;4563819;30;20387;-80
2023/08/10 12:48:13;;;;;;;3.75;2.17;;;22.00;53.10;;;;;;4649201;30;20566;-84
2023/08/10 13:18:54;;;;;;;2.70;2.13;;;22.10;51.80;;;;;;4587038;30;21012;-84
2023/08/10 14:24:58;;;;;;;3.55;2.20;;;21.00;53.80;;;;;;5054863;27;20760;-84
2023/08/10 15:05:31;;;;;;;10.85;4.15;;;26.50;49.90;;;;;;4855420;28;20239;-85
2023/08/10 15:25:50;;;;;;;4.80;2.60;;;21.70;54.70;;;;;;4847290;29;20229;-84
2023/08/10 15:50:57;;;;;;;5.13;2.42;;;21.50;57.60;;;;;;4743494;29;20265;-84
2023/08/10 16:16:06;;;;;;;5.35;2.67;;;25.60;50.70;;;;;;4823495;28;20727;-82
2023/08/10 16:41:43;;;;;;;3.13;1.98;;;22.50;51.90;;;;;;4771700;29;20273;-84
2023/08/10 17:07:18;;;;;;;5.65;2.92;;;21.70;53.80;;;;;;4911826;22;20570;-85
2023/08/10 17:32:06;;;;;;;2.88;2.63;;;20.80;56.40;;;;;;4652937;29;20547;-85
2023/08/10 17:57:44;;;;;;;6.07;2.90;;;19.30;80.30;;;;;;4644679;30;20221;-83
2023/08/10 18:23:02;;;;;;;4.80;3.73;;;17.50;94.90;;;;;;4701044;29;21200;-83
2023/08/10 18:53:47;;;;;;;7.30;4.77;;;16.50;99.90;;;;;;4811027;29;20391;-85
2023/08/10 19:18:32;;;;;;;9.77;5.17;;;16.60;99.90;;;;;;4684749;29;20588;-85
2023/08/10 19:39:19;;;;;;;5.23;4.27;;;16.30;99.90;;;;;;4701306;29;20706;-84
2023/08/10 20:09:09;;;;;;;10.40;5.77;;;15.40;99.90;;;;;;4655697;29;20502;-83
2023/08/10 20:29:57;;;;;;;9.63;6.30;;;15.00;99.90;;;;;;4622678;30;20222;-84
2023/08/10 21:25:16;;;;;;;9.23;7.20;;;14.50;99.90;;;;;;4678122;29;20224;-85
2023/08/10 21:50:35;;;;;;;7.73;6.97;;;13.80;99.90;;;;;;4745603;29;20745;-83
2023/08/10 22:10:52;;;;;;;9.67;6.77;;;13.50;99.90;;;;;;4672996;29;20821;-84
2023/08/10 22:31:37;;;;;;;8.97;8.07;;;13.60;99.90;;;;;;4626724;29;21148;-82
2023/08/10 23:01:37;;;;;;;11.60;8.93;;;13.10;99.90;;;;;;4534500;30;20236;-82
2023/08/10 23:22:18;;;;;;;9.50;8.60;;;12.80;99.90;;;;;;4558559;30;20317;-84
2023/08/10 23:58:00;;;;;;;10.27;8.50;;;13.00;99.90;;;;;;4758799;29;20754;-85
